createdAt,value
2022-10-30T00:00:52.187Z,59.09
2022-10-30T00:01:52.290Z,57.97
2022-10-30T00:02:52.300Z,56.13
2022-10-30T00:03:52.171Z,56.67
2022-10-30T00:04:52.137Z,58.43
2022-10-30T00:05:52.099Z,56.81
2022-10-30T00:06:52.090Z,55.29
2022-10-30T00:07:52.095Z,54.90
2022-10-30T00:08:52.122Z,58.74
2022-10-30T00:09:52.036Z,59.95
2022-10-30T00:10:52.035Z,54.17
2022-10-30T00:11:52.016Z,59.17
2022-10-30T00:12:52.005Z,58.77
2022-10-30T00:13:51.990Z,59.62
2022-10-30T00:14:51.956Z,58.04
2022-10-30T00:15:51.925Z,56.16
2022-10-30T00:16:51.911Z,58.60
2022-10-30T00:17:51.916Z,58.26
2022-10-30T00:18:51.920Z,59.50
2022-10-30T00:19:51.899Z,57.44
2022-10-30T00:20:51.877Z,58.54
2022-10-30T00:21:51.834Z,60.19
2022-10-30T00:22:51.809Z,58.72
2022-10-30T00:23:51.818Z,56.44
2022-10-30T00:24:51.883Z,58.15
2022-10-30T00:25:51.759Z,60.23
2022-10-30T00:26:51.735Z,55.81
2022-10-30T00:27:51.736Z,57.57
2022-10-30T00:28:51.740Z,56.95
2022-10-30T00:29:51.686Z,57.58
2022-10-30T00:30:51.697Z,60.36
2022-10-30T00:31:51.674Z,58.51
2022-10-30T00:32:51.710Z,60.03
2022-10-30T00:33:51.682Z,58.91
2022-10-30T00:34:51.633Z,59.43
2022-10-30T00:35:51.601Z,57.48
2022-10-30T00:36:51.586Z,59.08
2022-10-30T00:37:51.594Z,59.00
2022-10-30T00:38:51.590Z,57.39
2022-10-30T00:39:51.604Z,59.09
2022-10-30T00:40:51.510Z,61.45
2022-10-30T00:41:51.491Z,58.11
2022-10-30T00:42:51.473Z,55.72
2022-10-30T00:43:51.494Z,58.09
2022-10-30T00:44:51.434Z,56.02
2022-10-30T00:45:51.422Z,57.54
2022-10-30T00:46:51.400Z,57.51
2022-10-30T00:47:51.401Z,60.65
2022-10-30T00:48:51.412Z,57.98
2022-10-30T00:49:51.374Z,54.24
2022-10-30T00:50:51.370Z,57.58
2022-10-30T00:51:51.327Z,58.82
2022-10-30T00:52:51.302Z,52.75
2022-10-30T00:53:51.339Z,58.38
2022-10-30T00:54:51.298Z,56.98
2022-10-30T00:55:51.273Z,59.64
2022-10-30T00:56:51.234Z,54.68
2022-10-30T00:57:51.231Z,58.79
2022-10-30T00:58:51.259Z,56.72
2022-10-30T00:59:51.186Z,56.53
2022-10-30T01:00:51.263Z,55.19
2022-10-30T01:01:51.281Z,56.87
2022-10-30T01:02:51.126Z,57.52
2022-10-30T01:03:51.113Z,59.21
2022-10-30T01:04:51.137Z,57.72
2022-10-30T01:05:51.081Z,58.48
2022-10-30T01:06:51.072Z,55.53
2022-10-30T01:07:51.041Z,57.64
2022-10-30T01:08:55.300Z,58.88
2022-10-30T01:09:53.051Z,58.87
2022-10-30T01:10:50.997Z,57.66
2022-10-30T01:11:50.979Z,53.52
2022-10-30T01:12:50.971Z,50.58
2022-10-30T01:13:50.956Z,57.74
2022-10-30T01:14:50.983Z,56.90
2022-10-30T01:15:50.921Z,56.86
2022-10-30T01:16:50.898Z,59.32
2022-10-30T01:17:50.910Z,58.99
2022-10-30T01:18:50.920Z,57.05
2022-10-30T01:19:50.896Z,59.21
2022-10-30T01:20:50.826Z,58.56
2022-10-30T01:21:50.834Z,56.29
2022-10-30T01:22:50.788Z,57.16
2022-10-30T01:23:50.778Z,57.54
2022-10-30T01:24:50.792Z,58.36
2022-10-30T01:25:50.745Z,55.58
2022-10-30T01:26:50.721Z,56.95
2022-10-30T01:27:50.725Z,58.87
2022-10-30T01:28:50.687Z,58.80
2022-10-30T01:29:50.737Z,61.55
2022-10-30T01:30:50.673Z,56.42
2022-10-30T01:31:50.643Z,58.39
2022-10-30T01:32:50.617Z,58.97
2022-10-30T01:33:50.635Z,57.21
2022-10-30T01:34:50.636Z,54.85
2022-10-30T01:35:50.565Z,60.98
2022-10-30T01:36:50.559Z,59.54
2022-10-30T01:37:50.556Z,57.86
2022-10-30T01:38:50.518Z,57.36
2022-10-30T01:39:50.533Z,59.18
2022-10-30T01:40:50.496Z,61.04
2022-10-30T01:41:50.458Z,58.80
2022-10-30T01:42:50.450Z,58.69
2022-10-30T01:43:50.439Z,58.15
2022-10-30T01:44:50.443Z,60.63
2022-10-30T01:45:50.392Z,58.55
2022-10-30T01:46:50.375Z,57.06
2022-10-30T01:47:50.362Z,61.24
2022-10-30T01:48:50.341Z,59.57
2022-10-30T01:49:51.368Z,55.13
2022-10-30T01:50:50.305Z,54.37
2022-10-30T01:51:50.301Z,62.08
2022-10-30T01:52:50.291Z,55.80
2022-10-30T01:53:50.268Z,59.44
2022-10-30T01:54:50.283Z,57.63
2022-10-30T01:55:50.237Z,56.98
2022-10-30T01:56:50.210Z,58.80
2022-10-30T01:57:50.197Z,58.73
2022-10-30T01:58:50.171Z,57.89
2022-10-30T01:59:50.182Z,55.98
2022-10-30T02:00:50.136Z,58.82
2022-10-30T02:01:50.214Z,58.74
2022-10-30T02:02:50.222Z,58.74
2022-10-30T02:03:50.154Z,57.07
2022-10-30T02:04:50.101Z,59.25
2022-10-30T02:05:50.067Z,56.94
2022-10-30T02:06:50.034Z,59.39
2022-10-30T02:07:50.032Z,59.25
2022-10-30T02:08:50.015Z,56.94
2022-10-30T02:09:50.050Z,58.79
2022-10-30T02:10:49.970Z,55.04
2022-10-30T02:11:49.958Z,53.86
2022-10-30T02:12:49.959Z,57.81
2022-10-30T02:13:49.925Z,58.52
2022-10-30T02:14:50.065Z,62.32
2022-10-30T02:15:49.920Z,59.24
2022-10-30T02:16:49.893Z,59.88
2022-10-30T02:17:49.849Z,56.82
2022-10-30T02:18:49.849Z,58.64
2022-10-30T02:19:49.854Z,58.99
2022-10-30T02:20:50.811Z,55.52
2022-10-30T02:21:49.798Z,58.80
2022-10-30T02:22:53.038Z,58.09
2022-10-30T02:23:51.759Z,52.29
2022-10-30T02:24:49.777Z,53.11
2022-10-30T02:25:49.718Z,55.76
2022-10-30T02:26:49.733Z,56.59
2022-10-30T02:27:49.689Z,53.83
2022-10-30T02:28:49.703Z,53.18
2022-10-30T02:29:49.693Z,53.67
2022-10-30T02:30:49.629Z,55.45
2022-10-30T02:31:49.632Z,57.82
2022-10-30T02:32:50.605Z,54.32
2022-10-30T02:33:49.583Z,57.13
2022-10-30T02:34:49.602Z,59.54
2022-10-30T02:35:49.553Z,57.12
2022-10-30T02:36:49.574Z,54.47
2022-10-30T02:37:49.528Z,56.51
2022-10-30T02:38:49.499Z,58.56
2022-10-30T02:39:49.514Z,57.31
2022-10-30T02:40:49.475Z,53.62
2022-10-30T02:41:49.450Z,57.57
2022-10-30T02:42:49.430Z,57.66
2022-10-30T02:43:49.414Z,60.63
2022-10-30T02:44:49.441Z,58.27
2022-10-30T02:45:49.381Z,55.07
2022-10-30T02:46:49.369Z,56.58
2022-10-30T02:47:49.386Z,53.65
2022-10-30T02:48:49.330Z,56.91
2022-10-30T02:49:49.342Z,54.68
2022-10-30T02:50:49.305Z,55.67
2022-10-30T02:51:49.304Z,59.44
2022-10-30T02:52:49.266Z,58.21
2022-10-30T02:53:49.270Z,54.14
2022-10-30T02:54:49.256Z,55.92
2022-10-30T02:55:49.248Z,52.97
2022-10-30T02:56:49.190Z,54.00
2022-10-30T02:57:49.178Z,56.09
2022-10-30T02:58:49.155Z,59.75
2022-10-30T02:59:49.191Z,58.41
2022-10-30T03:00:49.182Z,57.87
2022-10-30T03:01:49.191Z,54.35
2022-10-30T03:02:49.135Z,57.96
2022-10-30T03:03:49.082Z,57.32
2022-10-30T03:04:49.093Z,56.95
2022-10-30T03:05:49.038Z,51.86
2022-10-30T03:06:49.031Z,56.75
2022-10-30T03:07:49.005Z,58.69
2022-10-30T03:08:48.996Z,54.91
2022-10-30T03:09:49.024Z,55.68
2022-10-30T03:10:48.974Z,60.38
2022-10-30T03:11:48.946Z,56.98
2022-10-30T03:12:48.929Z,56.28
2022-10-30T03:13:48.913Z,57.51
2022-10-30T03:14:49.498Z,56.16
2022-10-30T03:15:48.879Z,56.09
2022-10-30T03:16:48.860Z,57.14
2022-10-30T03:17:48.856Z,58.76
2022-10-30T03:18:48.844Z,60.01
2022-10-30T03:19:48.838Z,58.65
2022-10-30T03:20:48.800Z,56.67
2022-10-30T03:21:48.779Z,55.63
2022-10-30T03:22:48.761Z,55.44
2022-10-30T03:23:48.751Z,57.05
2022-10-30T03:24:48.776Z,55.04
2022-10-30T03:25:48.710Z,56.90
2022-10-30T03:26:48.714Z,57.14
2022-10-30T03:27:48.677Z,58.23
2022-10-30T03:28:48.678Z,53.49
2022-10-30T03:29:48.784Z,52.23
2022-10-30T03:30:48.647Z,56.66
2022-10-30T03:31:48.654Z,54.20
2022-10-30T03:32:48.596Z,55.73
2022-10-30T03:33:48.589Z,54.45
2022-10-30T03:34:48.606Z,55.97
2022-10-30T03:35:48.589Z,59.03
2022-10-30T03:36:48.538Z,58.45
2022-10-30T03:37:48.510Z,58.48
2022-10-30T03:38:48.493Z,57.38
2022-10-30T03:39:48.505Z,54.87
2022-10-30T03:40:48.466Z,53.95
2022-10-30T03:41:48.506Z,51.75
2022-10-30T03:42:48.433Z,56.80
2022-10-30T03:43:48.421Z,58.60
2022-10-30T03:44:48.435Z,56.40
2022-10-30T03:45:48.393Z,54.14
2022-10-30T03:46:48.373Z,50.21
2022-10-30T03:47:48.347Z,54.12
2022-10-30T03:48:48.325Z,56.69
2022-10-30T03:49:48.332Z,54.90
2022-10-30T03:50:48.287Z,56.72
2022-10-30T03:51:48.272Z,57.83
2022-10-30T03:52:48.251Z,59.28
2022-10-30T03:53:48.251Z,57.74
2022-10-30T03:54:48.265Z,60.24
2022-10-30T03:55:48.208Z,58.08
2022-10-30T03:56:48.199Z,58.06
2022-10-30T03:57:48.196Z,56.22
2022-10-30T03:58:48.164Z,56.58
2022-10-30T03:59:48.175Z,60.96
2022-10-30T04:00:48.124Z,58.64
2022-10-30T04:01:48.317Z,54.30
2022-10-30T04:02:48.093Z,55.88
2022-10-30T04:03:48.068Z,55.75
2022-10-30T04:04:48.101Z,56.59
2022-10-30T04:05:48.030Z,57.45
2022-10-30T04:06:48.020Z,55.35
2022-10-30T04:07:47.997Z,58.21
2022-10-30T04:08:47.978Z,57.74
2022-10-30T04:09:48.013Z,55.10
2022-10-30T04:10:47.993Z,57.26
2022-10-30T04:11:47.946Z,56.85
2022-10-30T04:13:02.656Z,60.62
2022-10-30T04:13:47.936Z,58.60
2022-10-30T04:14:47.928Z,56.95
2022-10-30T04:15:52.229Z,58.84
2022-10-30T04:16:49.851Z,58.67
2022-10-30T04:17:47.832Z,60.89
2022-10-30T04:18:47.827Z,56.73
2022-10-30T04:19:47.842Z,60.89
2022-10-30T04:20:47.788Z,59.92
2022-10-30T04:21:47.810Z,60.22
2022-10-30T04:22:47.761Z,57.95
2022-10-30T04:23:47.733Z,58.71
2022-10-30T04:24:47.759Z,56.21
2022-10-30T04:25:47.695Z,56.90
2022-10-30T04:26:47.696Z,54.61
2022-10-30T04:27:47.664Z,49.86
2022-10-30T04:28:47.655Z,58.47
2022-10-30T04:29:47.642Z,60.71
2022-10-30T04:30:47.634Z,60.09
2022-10-30T04:31:47.591Z,58.27
2022-10-30T04:32:47.600Z,58.97
2022-10-30T04:33:47.574Z,59.33
2022-10-30T04:34:47.595Z,60.25
2022-10-30T04:35:47.523Z,59.51
2022-10-30T04:36:47.510Z,55.72
2022-10-30T04:37:47.511Z,59.77
2022-10-30T04:38:47.485Z,55.51
2022-10-30T04:39:47.479Z,58.12
2022-10-30T04:40:47.483Z,60.25
2022-10-30T04:41:47.438Z,60.32
2022-10-30T04:42:47.443Z,58.38
2022-10-30T04:43:47.400Z,60.08
2022-10-30T04:44:47.369Z,58.23
2022-10-30T04:45:47.418Z,57.65
2022-10-30T04:46:47.344Z,59.96
2022-10-30T04:47:47.326Z,59.73
2022-10-30T04:48:47.309Z,58.59
2022-10-30T04:49:47.289Z,57.97
2022-10-30T04:50:47.297Z,56.92
2022-10-30T04:51:47.267Z,60.46
2022-10-30T04:52:47.262Z,60.84
2022-10-30T04:53:47.218Z,57.64
2022-10-30T04:54:47.228Z,61.49
2022-10-30T04:55:47.184Z,58.21
2022-10-30T04:56:47.186Z,62.61
2022-10-30T04:57:47.154Z,61.71
2022-10-30T04:58:47.165Z,60.10
2022-10-30T04:59:47.165Z,57.23
2022-10-30T05:00:47.167Z,60.21
2022-10-30T05:01:47.148Z,58.70
2022-10-30T05:02:47.093Z,59.43
2022-10-30T05:03:49.359Z,58.06
2022-10-30T05:04:48.091Z,60.75
2022-10-30T05:05:47.027Z,59.82
2022-10-30T05:06:47.014Z,59.15
2022-10-30T05:07:46.983Z,59.74
2022-10-30T05:08:46.980Z,59.59
2022-10-30T05:09:46.941Z,59.01
2022-10-30T05:10:46.965Z,57.43
2022-10-30T05:11:46.940Z,59.60
2022-10-30T05:12:46.907Z,59.37
2022-10-30T05:13:46.885Z,59.11
2022-10-30T05:14:46.871Z,58.45
2022-10-30T05:15:46.879Z,58.36
2022-10-30T05:16:46.828Z,59.88
2022-10-30T05:17:46.822Z,61.96
2022-10-30T05:18:46.794Z,60.56
2022-10-30T05:19:46.779Z,60.17
2022-10-30T05:21:14.476Z,60.31
2022-10-30T05:21:46.746Z,60.33
2022-10-30T05:22:46.730Z,59.09
2022-10-30T05:23:46.733Z,58.29
2022-10-30T05:24:46.701Z,57.82
2022-10-30T05:25:46.722Z,59.49
2022-10-30T05:26:46.680Z,57.74
2022-10-30T05:27:46.647Z,61.10
2022-10-30T05:28:46.635Z,59.40
2022-10-30T05:29:46.618Z,60.75
2022-10-30T05:30:46.625Z,62.16
2022-10-30T05:31:46.580Z,58.35
2022-10-30T05:32:46.566Z,60.91
2022-10-30T05:33:46.549Z,61.39
2022-10-30T05:34:46.529Z,60.51
2022-10-30T05:35:46.540Z,58.65
2022-10-30T05:36:46.494Z,58.61
2022-10-30T05:37:46.471Z,61.18
2022-10-30T05:38:46.456Z,59.96
2022-10-30T05:39:46.439Z,60.51
2022-10-30T05:40:46.488Z,61.69
2022-10-30T05:41:46.438Z,59.56
2022-10-30T05:42:46.391Z,61.75
2022-10-30T05:43:46.387Z,63.93
2022-10-30T05:45:02.629Z,64.51
2022-10-30T05:45:48.370Z,63.46
2022-10-30T05:46:46.374Z,62.24
2022-10-30T05:47:46.314Z,60.62
2022-10-30T05:48:46.281Z,62.45
2022-10-30T05:49:46.267Z,62.45
2022-10-30T05:50:46.280Z,61.87
2022-10-30T05:51:46.237Z,62.78
2022-10-30T05:52:46.220Z,64.56
2022-10-30T05:53:46.200Z,63.23
2022-10-30T05:54:47.184Z,63.08
2022-10-30T05:55:46.207Z,62.49
2022-10-30T05:56:46.236Z,62.83
2022-10-30T05:57:46.135Z,63.93
2022-10-30T05:58:46.128Z,64.42
2022-10-30T05:59:46.100Z,62.08
2022-10-30T06:00:46.133Z,61.78
2022-10-30T06:01:46.076Z,61.83
2022-10-30T06:02:46.075Z,60.44
2022-10-30T06:03:46.036Z,61.65
2022-10-30T06:04:46.018Z,61.55
2022-10-30T06:05:46.026Z,63.23
2022-10-30T06:06:45.978Z,61.14
2022-10-30T06:07:45.975Z,61.87
2022-10-30T06:08:45.946Z,61.11
2022-10-30T06:09:45.945Z,62.66
2022-10-30T06:10:45.953Z,63.68
2022-10-30T06:11:45.905Z,62.17
2022-10-30T06:12:45.865Z,62.81
2022-10-30T06:13:45.867Z,59.23
2022-10-30T06:14:45.834Z,59.47
2022-10-30T06:15:45.861Z,60.76
2022-10-30T06:16:45.805Z,62.25
2022-10-30T06:17:45.795Z,60.93
2022-10-30T06:18:45.754Z,62.16
2022-10-30T06:19:46.742Z,61.32
2022-10-30T06:20:45.766Z,61.78
2022-10-30T06:21:45.721Z,62.50
2022-10-30T06:22:45.721Z,62.83
2022-10-30T06:23:45.692Z,62.15
2022-10-30T06:24:45.670Z,62.74
2022-10-30T06:25:45.676Z,62.52
2022-10-30T06:26:45.622Z,62.98
2022-10-30T06:27:45.610Z,62.14
2022-10-30T06:28:45.615Z,62.67
2022-10-30T06:29:45.575Z,60.36
2022-10-30T06:30:45.699Z,59.92
2022-10-30T06:31:45.543Z,63.60
2022-10-30T06:32:45.553Z,61.67
2022-10-30T06:33:45.512Z,62.32
2022-10-30T06:34:45.496Z,61.65
2022-10-30T06:35:45.521Z,61.69
2022-10-30T06:36:45.503Z,63.65
2022-10-30T06:37:45.450Z,62.11
2022-10-30T06:38:45.434Z,61.37
2022-10-30T06:39:45.402Z,60.96
2022-10-30T06:40:45.420Z,60.45
2022-10-30T06:41:45.373Z,62.39
2022-10-30T06:42:45.354Z,61.25
2022-10-30T06:43:45.374Z,62.28
2022-10-30T06:44:45.325Z,62.32
2022-10-30T06:45:45.338Z,60.54
2022-10-30T06:46:45.324Z,61.62
2022-10-30T06:47:45.270Z,62.01
2022-10-30T06:48:45.262Z,63.66
2022-10-30T06:49:45.245Z,63.20
2022-10-30T06:50:45.258Z,62.61
2022-10-30T06:51:45.229Z,62.88
2022-10-30T06:52:45.185Z,62.67
2022-10-30T06:53:46.171Z,60.98
2022-10-30T06:54:45.159Z,62.92
2022-10-30T06:55:45.171Z,62.58
2022-10-30T06:56:45.119Z,62.58
2022-10-30T06:57:45.108Z,63.40
2022-10-30T06:58:45.078Z,62.19
2022-10-30T06:59:45.067Z,63.67
2022-10-30T07:00:45.216Z,64.41
2022-10-30T07:01:45.133Z,63.78
2022-10-30T07:02:45.011Z,59.74
2022-10-30T07:03:44.996Z,59.91
2022-10-30T07:04:44.989Z,61.88
2022-10-30T07:05:45.035Z,62.85
2022-10-30T07:06:44.968Z,62.02
2022-10-30T07:07:44.977Z,63.12
2022-10-30T07:08:44.924Z,63.75
2022-10-30T07:09:44.899Z,62.47
2022-10-30T07:10:44.973Z,62.93
2022-10-30T07:11:44.857Z,61.81
2022-10-30T07:12:44.842Z,61.47
2022-10-30T07:13:44.826Z,61.24
2022-10-30T07:14:44.804Z,61.57
2022-10-30T07:15:44.865Z,63.29
2022-10-30T07:16:44.774Z,62.53
2022-10-30T07:17:44.754Z,63.61
2022-10-30T07:18:44.735Z,64.01
2022-10-30T07:19:44.720Z,62.45
2022-10-30T07:20:44.748Z,62.44
2022-10-30T07:21:44.686Z,62.72
2022-10-30T07:22:44.669Z,63.20
2022-10-30T07:23:44.667Z,60.86
2022-10-30T07:24:44.634Z,62.97
2022-10-30T07:25:44.655Z,62.98
2022-10-30T07:26:44.596Z,61.77
2022-10-30T07:27:44.591Z,62.92
2022-10-30T07:28:44.565Z,61.11
2022-10-30T07:29:44.554Z,59.22
2022-10-30T07:30:44.567Z,60.00
2022-10-30T07:31:57.588Z,62.09
2022-10-30T07:32:46.513Z,60.76
2022-10-30T07:33:44.501Z,59.75
2022-10-30T07:34:44.467Z,58.66
2022-10-30T07:35:44.487Z,58.86
2022-10-30T07:36:44.427Z,61.62
2022-10-30T07:37:44.425Z,60.15
2022-10-30T07:38:44.401Z,61.64
2022-10-30T07:39:44.386Z,60.63
2022-10-30T07:40:44.396Z,61.23
2022-10-30T07:41:49.770Z,62.16
2022-10-30T07:42:46.341Z,60.19
2022-10-30T07:43:44.318Z,61.69
2022-10-30T07:44:44.324Z,60.05
2022-10-30T07:45:44.328Z,59.90
2022-10-30T07:46:44.281Z,60.21
2022-10-30T07:47:44.257Z,59.32
2022-10-30T07:48:44.250Z,60.90
2022-10-30T07:49:44.225Z,58.26
2022-10-30T07:50:44.237Z,60.37
2022-10-30T07:51:44.199Z,60.10
2022-10-30T07:52:44.175Z,60.17
2022-10-30T07:53:44.150Z,60.36
2022-10-30T07:54:44.212Z,61.96
2022-10-30T07:55:44.160Z,63.07
2022-10-30T07:56:44.102Z,61.39
2022-10-30T07:57:44.091Z,61.43
2022-10-30T07:58:45.605Z,62.64
2022-10-30T07:59:45.096Z,61.87
2022-10-30T08:00:44.074Z,62.40
2022-10-30T08:01:44.266Z,62.29
2022-10-30T08:02:44.160Z,62.90
2022-10-30T08:03:43.996Z,62.88
2022-10-30T08:04:43.995Z,63.20
2022-10-30T08:05:43.989Z,62.72
2022-10-30T08:06:43.949Z,63.20
2022-10-30T08:07:43.946Z,62.16
2022-10-30T08:08:43.911Z,62.04
2022-10-30T08:09:44.095Z,63.31
2022-10-30T08:10:43.954Z,62.55
2022-10-30T08:11:43.869Z,63.00
2022-10-30T08:12:43.867Z,62.31
2022-10-30T08:13:43.867Z,62.27
2022-10-30T08:14:43.852Z,63.09
2022-10-30T08:15:43.966Z,63.70
2022-10-30T08:16:43.829Z,62.89
2022-10-30T08:17:43.767Z,64.71
2022-10-30T08:18:43.768Z,64.69
2022-10-30T08:19:43.746Z,65.03
2022-10-30T08:20:43.826Z,63.36
2022-10-30T08:21:43.698Z,62.13
2022-10-30T08:22:43.692Z,63.51
2022-10-30T08:23:43.668Z,63.75
2022-10-30T08:24:43.655Z,64.22
2022-10-30T08:25:43.673Z,63.89
2022-10-30T08:26:43.618Z,63.85
2022-10-30T08:27:43.614Z,63.15
2022-10-30T08:28:43.586Z,63.41
2022-10-30T08:29:43.584Z,62.55
2022-10-30T08:30:43.609Z,62.28
2022-10-30T08:31:43.556Z,63.33
2022-10-30T08:32:43.662Z,63.46
2022-10-30T08:33:43.515Z,63.32
2022-10-30T08:34:43.518Z,64.40
2022-10-30T08:35:43.523Z,64.65
2022-10-30T08:36:46.758Z,62.63
2022-10-30T08:37:44.458Z,63.44
2022-10-30T08:38:43.421Z,64.15
2022-10-30T08:39:43.409Z,63.95
2022-10-30T08:40:43.451Z,63.04
2022-10-30T08:41:43.377Z,62.95
2022-10-30T08:42:43.373Z,63.89
2022-10-30T08:43:43.341Z,62.97
2022-10-30T08:44:43.340Z,62.80
2022-10-30T08:45:43.345Z,63.93
2022-10-30T08:46:43.300Z,63.72
2022-10-30T08:47:43.293Z,63.21
2022-10-30T08:48:43.346Z,62.00
2022-10-30T08:49:43.263Z,62.14
2022-10-30T08:50:43.270Z,62.73
2022-10-30T08:51:43.231Z,61.63
2022-10-30T08:52:43.213Z,62.24
2022-10-30T08:53:43.193Z,63.40
2022-10-30T08:54:44.170Z,62.96
2022-10-30T08:55:43.191Z,61.96
2022-10-30T08:56:43.146Z,63.06
2022-10-30T08:57:44.141Z,63.73
2022-10-30T08:58:43.131Z,63.85
2022-10-30T08:59:43.102Z,63.38
2022-10-30T09:00:43.364Z,63.14
2022-10-30T09:01:43.235Z,62.17
2022-10-30T09:02:43.174Z,62.84
2022-10-30T09:03:43.050Z,61.83
2022-10-30T09:04:43.013Z,62.53
2022-10-30T09:05:43.036Z,62.42
2022-10-30T09:06:43.012Z,62.31
2022-10-30T09:07:43.095Z,62.11
2022-10-30T09:08:42.955Z,61.79
2022-10-30T09:09:42.984Z,62.25
2022-10-30T09:10:42.956Z,61.02
2022-10-30T09:11:42.908Z,63.04
2022-10-30T09:12:42.913Z,60.66
2022-10-30T09:13:42.875Z,61.88
2022-10-30T09:14:42.850Z,60.42
2022-10-30T09:15:42.889Z,62.49
2022-10-30T09:16:42.833Z,62.64
2022-10-30T09:17:42.810Z,62.00
2022-10-30T09:18:42.807Z,61.47
2022-10-30T09:19:42.857Z,61.25
2022-10-30T09:20:42.791Z,61.08
2022-10-30T09:21:42.748Z,61.29
2022-10-30T09:22:42.727Z,60.80
2022-10-30T09:23:42.731Z,61.61
2022-10-30T09:24:42.703Z,61.32
2022-10-30T09:25:42.740Z,62.70
2022-10-30T09:26:42.667Z,63.07
2022-10-30T09:27:42.653Z,61.88
2022-10-30T09:28:42.642Z,61.18
2022-10-30T09:29:42.616Z,61.15
2022-10-30T09:30:42.644Z,61.03
2022-10-30T09:31:42.591Z,61.58
2022-10-30T09:32:42.561Z,60.18
2022-10-30T09:33:42.585Z,60.22
2022-10-30T09:34:42.552Z,60.85
2022-10-30T09:35:42.552Z,60.79
2022-10-30T09:36:42.501Z,61.59
2022-10-30T09:37:42.477Z,61.09
2022-10-30T09:38:42.472Z,60.59
2022-10-30T09:39:42.448Z,61.06
2022-10-30T09:40:42.482Z,61.24
2022-10-30T09:41:45.775Z,61.26
2022-10-30T09:42:44.394Z,59.11
2022-10-30T09:43:42.377Z,60.66
2022-10-30T09:44:43.784Z,60.78
2022-10-30T09:45:43.389Z,60.32
2022-10-30T09:46:42.360Z,61.20
2022-10-30T09:47:42.328Z,61.04
2022-10-30T09:48:42.297Z,60.28
2022-10-30T09:49:42.307Z,60.64
2022-10-30T09:50:42.299Z,61.74
2022-10-30T09:51:42.255Z,60.93
2022-10-30T09:52:42.232Z,60.98
2022-10-30T09:53:42.262Z,61.04
2022-10-30T09:54:42.220Z,60.80
2022-10-30T09:55:42.207Z,59.30
2022-10-30T09:56:43.164Z,60.51
2022-10-30T09:57:42.160Z,60.00
2022-10-30T09:58:42.148Z,59.39
2022-10-30T09:59:42.137Z,61.96
2022-10-30T10:00:42.146Z,59.15
2022-10-30T10:01:42.278Z,59.27
2022-10-30T10:02:42.174Z,59.85
2022-10-30T10:03:42.206Z,59.93
2022-10-30T10:04:42.051Z,59.20
2022-10-30T10:05:42.064Z,60.99
2022-10-30T10:06:42.011Z,60.60
2022-10-30T10:07:42.005Z,61.55
2022-10-30T10:08:41.996Z,61.76
2022-10-30T10:09:42.019Z,60.80
2022-10-30T10:10:41.989Z,60.24
2022-10-30T10:11:41.936Z,60.72
2022-10-30T10:12:41.969Z,60.55
2022-10-30T10:13:41.916Z,61.53
2022-10-30T10:14:41.903Z,60.67
2022-10-30T10:15:41.913Z,60.08
2022-10-30T10:16:41.861Z,59.98
2022-10-30T10:17:41.845Z,60.41
2022-10-30T10:18:41.832Z,60.99
2022-10-30T10:19:41.831Z,61.19
2022-10-30T10:20:41.840Z,60.87
2022-10-30T10:21:41.795Z,61.58
2022-10-30T10:22:41.778Z,60.94
2022-10-30T10:23:41.764Z,61.66
2022-10-30T10:24:41.744Z,60.63
2022-10-30T10:25:41.773Z,61.37
2022-10-30T10:26:41.731Z,60.14
2022-10-30T10:27:41.694Z,59.15
2022-10-30T10:28:41.691Z,58.54
2022-10-30T10:29:41.687Z,60.19
2022-10-30T10:30:41.703Z,60.23
2022-10-30T10:31:41.635Z,60.98
2022-10-30T10:32:41.623Z,60.70
2022-10-30T10:33:41.640Z,60.99
2022-10-30T10:34:41.611Z,62.01
2022-10-30T10:35:41.615Z,61.10
2022-10-30T10:36:41.564Z,61.12
2022-10-30T10:37:41.558Z,61.65
2022-10-30T10:38:41.533Z,60.42
2022-10-30T10:39:41.518Z,60.51
2022-10-30T10:40:41.566Z,59.92
2022-10-30T10:41:41.664Z,59.64
2022-10-30T10:42:42.487Z,60.48
2022-10-30T10:43:41.457Z,61.49
2022-10-30T10:44:41.440Z,60.35
2022-10-30T10:45:41.588Z,60.70
2022-10-30T10:46:41.417Z,61.22
2022-10-30T10:47:41.390Z,60.68
2022-10-30T10:48:41.379Z,61.71
2022-10-30T10:49:41.376Z,62.39
2022-10-30T10:50:41.383Z,61.25
2022-10-30T10:51:41.347Z,60.93
2022-10-30T10:52:41.320Z,61.02
2022-10-30T10:53:41.304Z,60.40
2022-10-30T10:54:41.321Z,61.62
2022-10-30T10:55:41.307Z,60.96
2022-10-30T10:56:41.270Z,60.37
2022-10-30T10:57:41.233Z,60.42
2022-10-30T10:58:41.233Z,59.88
2022-10-30T10:59:41.211Z,61.40
2022-10-30T11:00:41.217Z,61.80
2022-10-30T11:01:41.335Z,61.00
2022-10-30T11:02:41.215Z,60.81
2022-10-30T11:03:41.156Z,60.86
2022-10-30T11:04:41.238Z,61.05
2022-10-30T11:05:41.154Z,62.22
2022-10-30T11:06:41.095Z,60.54
2022-10-30T11:07:41.081Z,61.68
2022-10-30T11:08:41.058Z,61.07
2022-10-30T11:09:41.058Z,59.94
2022-10-30T11:10:41.069Z,61.24
2022-10-30T11:11:41.034Z,61.84
2022-10-30T11:12:40.999Z,61.34
2022-10-30T11:13:40.985Z,61.99
2022-10-30T11:14:40.962Z,62.15
2022-10-30T11:15:40.987Z,61.67
2022-10-30T11:16:40.974Z,61.82
2022-10-30T11:17:40.919Z,60.08
2022-10-30T11:18:40.901Z,62.33
2022-10-30T11:19:40.874Z,63.20
2022-10-30T11:20:40.927Z,63.88
2022-10-30T11:22:07.223Z,62.30
2022-10-30T11:22:40.837Z,60.73
2022-10-30T11:23:40.820Z,63.40
2022-10-30T11:24:40.831Z,62.58
2022-10-30T11:25:40.820Z,63.30
2022-10-30T11:26:40.765Z,61.66
2022-10-30T11:27:40.747Z,62.65
2022-10-30T11:28:40.739Z,62.85
2022-10-30T11:29:40.749Z,62.86
2022-10-30T11:30:40.747Z,64.25
2022-10-30T11:31:40.766Z,64.19
2022-10-30T11:32:40.714Z,62.39
2022-10-30T11:33:40.670Z,63.10
2022-10-30T11:34:40.647Z,62.90
2022-10-30T11:35:40.659Z,63.07
2022-10-30T11:36:40.649Z,63.92
2022-10-30T11:37:40.604Z,63.31
2022-10-30T11:38:40.599Z,62.91
2022-10-30T11:39:40.603Z,63.64
2022-10-30T11:40:40.587Z,63.28
2022-10-30T11:41:40.533Z,62.28
2022-10-30T11:42:40.530Z,63.21
2022-10-30T11:43:40.496Z,63.92
2022-10-30T11:44:40.488Z,62.99
2022-10-30T11:45:40.506Z,64.17
2022-10-30T11:46:40.455Z,63.59
2022-10-30T11:47:40.460Z,63.29
2022-10-30T11:48:40.423Z,65.20
2022-10-30T11:49:40.417Z,65.58
2022-10-30T11:50:40.425Z,63.94
2022-10-30T11:51:40.530Z,63.85
2022-10-30T11:52:40.481Z,64.11
2022-10-30T11:53:40.346Z,64.53
2022-10-30T11:54:41.329Z,63.65
2022-10-30T11:55:40.337Z,64.31
2022-10-30T11:56:40.312Z,64.75
2022-10-30T11:57:40.270Z,64.47
2022-10-30T11:58:40.275Z,64.21
2022-10-30T11:59:40.241Z,64.69
2022-10-30T12:00:40.255Z,64.52
2022-10-30T12:01:40.273Z,64.22
2022-10-30T12:02:40.200Z,64.93
2022-10-30T12:03:40.174Z,64.29
2022-10-30T12:04:40.162Z,63.91
2022-10-30T12:05:42.547Z,64.63
2022-10-30T12:06:40.124Z,65.23
2022-10-30T12:07:40.244Z,66.79
2022-10-30T12:08:40.212Z,65.00
2022-10-30T12:09:40.154Z,66.03
2022-10-30T12:10:40.270Z,65.99
2022-10-30T12:11:40.132Z,67.12
2022-10-30T12:12:40.030Z,67.45
2022-10-30T12:13:40.050Z,68.00
2022-10-30T12:14:39.988Z,65.15
2022-10-30T12:15:40.027Z,64.03
2022-10-30T12:16:39.995Z,67.17
2022-10-30T12:17:39.951Z,66.32
2022-10-30T12:18:39.965Z,66.29
2022-10-30T12:19:39.907Z,66.26
2022-10-30T12:20:39.920Z,67.61
2022-10-30T12:21:39.890Z,66.54
2022-10-30T12:22:39.853Z,68.36
2022-10-30T12:23:39.835Z,66.66
2022-10-30T12:24:39.833Z,66.90
2022-10-30T12:25:39.847Z,66.08
2022-10-30T12:26:39.822Z,67.50
2022-10-30T12:27:39.788Z,66.25
2022-10-30T12:28:39.761Z,66.03
2022-10-30T12:30:06.825Z,65.58
2022-10-30T12:30:41.765Z,65.63
2022-10-30T12:31:39.709Z,66.82
2022-10-30T12:32:39.865Z,66.08
2022-10-30T12:33:39.666Z,65.87
2022-10-30T12:34:39.653Z,67.21
2022-10-30T12:35:39.702Z,65.52
2022-10-30T12:36:39.662Z,65.50
2022-10-30T12:37:39.624Z,65.64
2022-10-30T12:38:39.585Z,66.60
2022-10-30T12:39:39.563Z,66.14
2022-10-30T12:40:39.607Z,66.42
2022-10-30T12:41:39.559Z,67.11
2022-10-30T12:42:39.519Z,67.27
2022-10-30T12:43:39.515Z,66.58
2022-10-30T12:44:39.489Z,66.04
2022-10-30T12:45:39.534Z,65.92
2022-10-30T12:46:39.444Z,66.59
2022-10-30T12:47:39.435Z,65.60
2022-10-30T12:48:39.502Z,67.29
2022-10-30T12:49:39.416Z,67.17
2022-10-30T12:50:39.421Z,65.47
2022-10-30T12:51:39.488Z,66.20
2022-10-30T12:52:39.359Z,65.50